Aviation Digital Data Service (ADDS)

Output produced by METARs form (2120 UTC 01 December 2021)
found at http://aviationweather.gov/metar/data/
 
KNEW 011740Z 0118/0218 VRB04KT P6SM SCT250